createdAt,value
2023-03-06T00:00:27.875Z,4.74
2023-03-06T00:02:54.312Z,4.71
2023-03-06T00:05:20.801Z,4.72
2023-03-06T00:07:47.318Z,4.71
2023-03-06T00:10:22.655Z,4.72
2023-03-06T00:12:54.489Z,4.70
2023-03-06T00:15:21.090Z,4.70
2023-03-06T00:17:47.668Z,4.70
2023-03-06T00:20:14.799Z,4.68
2023-03-06T00:22:41.622Z,4.65
2023-03-06T00:25:09.661Z,4.65
2023-03-06T00:27:36.074Z,4.66
2023-03-06T00:30:02.500Z,4.66
2023-03-06T00:32:29.003Z,4.65
2023-03-06T00:34:55.795Z,4.67
2023-03-06T00:37:23.512Z,4.67
2023-03-06T00:39:49.988Z,4.68
2023-03-06T00:42:17.579Z,4.66
2023-03-06T00:44:44.014Z,4.66
2023-03-06T00:47:11.215Z,4.66
2023-03-06T00:49:37.825Z,4.65
2023-03-06T00:52:05.494Z,4.60
2023-03-06T00:54:31.914Z,4.59
2023-03-06T00:56:58.369Z,4.56
2023-03-06T00:59:24.807Z,4.54
2023-03-06T01:01:51.279Z,4.51
2023-03-06T01:04:17.733Z,4.52
2023-03-06T01:06:44.149Z,4.56
2023-03-06T01:09:10.595Z,4.55
2023-03-06T01:11:37.144Z,4.55
2023-03-06T01:14:03.615Z,4.55
2023-03-06T01:16:30.097Z,4.57
2023-03-06T01:18:56.659Z,4.56
2023-03-06T01:21:23.298Z,4.57
2023-03-06T01:23:49.705Z,4.58
2023-03-06T01:26:16.229Z,4.59
2023-03-06T01:28:42.666Z,4.60
2023-03-06T01:31:10.157Z,4.60
2023-03-06T01:33:36.630Z,4.57
2023-03-06T01:36:05.505Z,4.60
2023-03-06T01:38:32.139Z,4.58
2023-03-06T01:40:58.628Z,4.58
2023-03-06T01:43:27.853Z,4.55
2023-03-06T01:46:30.387Z,4.57
2023-03-06T01:49:05.817Z,4.53
2023-03-06T01:51:39.536Z,4.54
2023-03-06T01:54:10.171Z,4.54
2023-03-06T01:56:36.761Z,4.55
2023-03-06T01:59:03.284Z,4.53
2023-03-06T02:01:31.141Z,4.52
2023-03-06T02:03:57.752Z,4.49
2023-03-06T02:06:24.208Z,4.49
2023-03-06T02:08:52.236Z,4.48
2023-03-06T02:11:21.304Z,4.43
2023-03-06T02:13:48.432Z,4.42
2023-03-06T02:16:15.433Z,4.41
2023-03-06T02:18:43.069Z,4.38
2023-03-06T02:21:12.314Z,4.37
2023-03-06T02:23:55.147Z,4.33
2023-03-06T02:26:21.767Z,4.32
2023-03-06T02:28:48.195Z,4.30
2023-03-06T02:31:23.661Z,4.30
2023-03-06T02:34:15.749Z,4.27
2023-03-06T02:37:03.300Z,4.27
2023-03-06T02:39:31.645Z,4.23
2023-03-06T02:41:58.053Z,4.24
2023-03-06T02:44:25.866Z,4.22
2023-03-06T02:46:52.265Z,4.21
2023-03-06T02:49:18.673Z,4.20
2023-03-06T02:51:45.078Z,4.19
2023-03-06T02:54:11.489Z,4.18
2023-03-06T02:56:37.905Z,4.18
2023-03-06T02:59:04.405Z,4.16
2023-03-06T03:01:30.903Z,4.15
2023-03-06T03:03:57.376Z,4.18
2023-03-06T03:06:23.813Z,4.17
2023-03-06T03:08:50.248Z,4.18
2023-03-06T03:11:16.651Z,4.17
2023-03-06T03:13:43.122Z,4.18
2023-03-06T03:16:15.343Z,4.16
2023-03-06T03:18:44.462Z,4.20
2023-03-06T03:21:13.382Z,4.20
2023-03-06T03:23:40.129Z,4.18
2023-03-06T03:26:09.175Z,4.16
2023-03-06T03:28:35.717Z,4.15
2023-03-06T03:31:07.152Z,4.14
2023-03-06T03:33:33.961Z,4.14
2023-03-06T03:36:02.208Z,4.18
2023-03-06T03:38:28.630Z,4.18
2023-03-06T03:40:55.064Z,4.16
2023-03-06T03:43:21.510Z,4.16
2023-03-06T03:45:48.031Z,4.20
2023-03-06T03:48:14.459Z,4.18
2023-03-06T03:50:40.902Z,4.20
2023-03-06T03:53:07.331Z,4.16
2023-03-06T03:55:33.804Z,4.17
2023-03-06T03:58:00.225Z,4.18
2023-03-06T04:00:26.649Z,4.16
2023-03-06T04:02:53.066Z,4.14
2023-03-06T04:05:19.628Z,4.14
2023-03-06T04:07:46.196Z,4.16
2023-03-06T04:10:12.863Z,4.20
2023-03-06T04:12:39.274Z,4.19
2023-03-06T04:15:06.769Z,4.19
2023-03-06T04:17:34.891Z,4.20
2023-03-06T04:20:02.075Z,4.20
2023-03-06T04:22:28.576Z,4.19
2023-03-06T04:24:54.991Z,4.20
2023-03-06T04:27:21.406Z,4.20
2023-03-06T04:29:47.844Z,4.22
2023-03-06T04:32:14.432Z,4.22
2023-03-06T04:34:41.258Z,4.24
2023-03-06T04:37:13.862Z,4.26
2023-03-06T04:39:40.267Z,4.24
2023-03-06T04:42:06.817Z,4.25
2023-03-06T04:44:33.245Z,4.25
2023-03-06T04:46:59.648Z,4.27
2023-03-06T04:49:26.050Z,4.28
2023-03-06T04:51:52.455Z,4.27
2023-03-06T04:54:19.167Z,4.28
2023-03-06T04:56:45.641Z,4.28
2023-03-06T04:59:12.076Z,4.31
2023-03-06T05:01:38.510Z,4.31
2023-03-06T05:04:04.967Z,4.30
2023-03-06T05:06:31.541Z,4.32
2023-03-06T05:08:58.102Z,4.33
2023-03-06T05:11:24.518Z,4.33
2023-03-06T05:13:51.556Z,4.32
2023-03-06T05:16:18.145Z,4.29
2023-03-06T05:18:44.634Z,4.28
2023-03-06T05:21:11.085Z,4.30
2023-03-06T05:23:38.595Z,4.28
2023-03-06T05:26:07.967Z,4.29
2023-03-06T05:28:34.466Z,4.28
2023-03-06T05:31:03.272Z,4.31
2023-03-06T05:33:32.033Z,4.29
2023-03-06T05:35:58.517Z,4.29
2023-03-06T05:38:24.941Z,4.28
2023-03-06T05:40:51.381Z,4.30
2023-03-06T05:43:17.916Z,4.30
2023-03-06T05:45:44.571Z,4.30
2023-03-06T05:48:12.346Z,4.32
2023-03-06T05:50:38.898Z,4.33
2023-03-06T05:53:05.414Z,4.34
2023-03-06T05:55:31.847Z,4.35
2023-03-06T05:57:58.337Z,4.38
2023-03-06T06:00:24.865Z,4.40
2023-03-06T06:02:51.544Z,4.42
2023-03-06T06:05:18.062Z,4.44
2023-03-06T06:07:44.484Z,4.43
2023-03-06T06:10:11.481Z,4.42
2023-03-06T06:12:37.908Z,4.43
2023-03-06T06:15:04.964Z,4.40
2023-03-06T06:17:31.697Z,4.46
2023-03-06T06:19:58.098Z,4.51
2023-03-06T06:22:24.558Z,4.55
2023-03-06T06:24:51.023Z,4.51
2023-03-06T06:27:17.417Z,4.50
2023-03-06T06:29:43.846Z,4.51
2023-03-06T06:32:10.313Z,4.52
2023-03-06T06:34:36.750Z,4.53
2023-03-06T06:37:03.168Z,4.54
2023-03-06T06:39:30.362Z,4.55
2023-03-06T06:42:14.615Z,4.56
2023-03-06T06:44:43.263Z,4.59
2023-03-06T06:47:22.348Z,4.59
2023-03-06T06:49:51.193Z,4.61
2023-03-06T06:52:18.651Z,4.62
2023-03-06T06:54:45.338Z,4.63
2023-03-06T06:57:12.407Z,4.60
2023-03-06T06:59:38.904Z,4.63
2023-03-06T07:02:05.848Z,4.66
2023-03-06T07:04:32.373Z,4.69
2023-03-06T07:06:58.765Z,4.73
2023-03-06T07:09:25.185Z,4.72
2023-03-06T07:11:51.597Z,4.73
2023-03-06T07:14:18.117Z,4.72
2023-03-06T07:16:44.523Z,4.71
2023-03-06T07:19:10.929Z,4.72
2023-03-06T07:21:37.353Z,4.70
2023-03-06T07:24:03.989Z,4.71
2023-03-06T07:26:32.706Z,4.73
2023-03-06T07:29:00.587Z,4.79
2023-03-06T07:31:27.546Z,4.82
2023-03-06T07:33:54.971Z,4.84
2023-03-06T07:36:22.664Z,4.87
2023-03-06T07:38:49.165Z,4.88
2023-03-06T07:41:16.466Z,4.88
2023-03-06T07:43:45.152Z,4.89
2023-03-06T07:46:12.805Z,4.93
2023-03-06T07:48:39.658Z,4.97
2023-03-06T07:51:08.606Z,5.03
2023-03-06T07:53:35.657Z,5.02
2023-03-06T07:56:08.488Z,5.06
2023-03-06T07:58:40.269Z,5.10
2023-03-06T08:01:08.622Z,5.14
2023-03-06T08:03:35.485Z,5.19
2023-03-06T08:06:13.615Z,5.20
2023-03-06T08:08:41.673Z,5.20
2023-03-06T08:11:10.026Z,5.23
2023-03-06T08:13:36.746Z,5.27
2023-03-06T08:16:03.246Z,5.25
2023-03-06T08:18:29.765Z,5.24
2023-03-06T08:21:10.682Z,5.20
2023-03-06T08:23:38.103Z,5.11
2023-03-06T08:26:10.895Z,5.06
2023-03-06T08:28:37.375Z,4.97
2023-03-06T08:31:24.671Z,4.88
2023-03-06T08:33:51.471Z,4.80
2023-03-06T08:36:17.909Z,4.72
2023-03-06T08:38:44.372Z,4.67
2023-03-06T08:41:10.848Z,4.61
2023-03-06T08:43:37.267Z,4.60
2023-03-06T08:46:04.001Z,4.61
2023-03-06T08:48:30.529Z,4.61
2023-03-06T08:50:56.952Z,4.61
2023-03-06T08:53:40.462Z,4.64
2023-03-06T08:56:35.225Z,4.68
2023-03-06T08:59:03.836Z,4.74
2023-03-06T09:01:36.664Z,4.73
2023-03-06T09:04:06.317Z,4.75
2023-03-06T09:06:35.083Z,4.76
2023-03-06T09:09:01.877Z,4.74
2023-03-06T09:11:29.651Z,4.72
2023-03-06T09:13:56.385Z,4.77
2023-03-06T09:16:24.351Z,4.80
2023-03-06T09:18:52.865Z,4.84
2023-03-06T09:21:20.764Z,4.86
2023-03-06T09:23:47.199Z,4.91
2023-03-06T09:26:13.776Z,4.97
2023-03-06T09:28:40.391Z,5.05
2023-03-06T09:31:08.624Z,5.10
2023-03-06T09:33:35.142Z,5.20
2023-03-06T09:36:02.115Z,5.26
2023-03-06T09:38:28.826Z,5.33
2023-03-06T09:40:58.307Z,5.45
2023-03-06T09:43:29.379Z,5.54
2023-03-06T09:45:56.666Z,5.58
2023-03-06T09:48:32.152Z,5.59
2023-03-06T09:51:02.605Z,5.61
2023-03-06T09:53:58.631Z,5.59
2023-03-06T09:56:31.201Z,5.52
2023-03-06T09:59:05.330Z,5.48
2023-03-06T10:01:35.265Z,5.48
2023-03-06T10:04:26.505Z,5.52
2023-03-06T10:06:55.870Z,5.52
2023-03-06T10:09:41.360Z,5.53
2023-03-06T10:12:24.305Z,5.58
2023-03-06T10:15:18.574Z,5.65
2023-03-06T10:17:45.247Z,5.71
2023-03-06T10:20:26.690Z,5.75
2023-03-06T10:23:11.156Z,5.81
2023-03-06T10:26:04.026Z,5.89
2023-03-06T10:28:37.076Z,5.94
2023-03-06T10:31:07.163Z,5.94
2023-03-06T10:33:51.859Z,6.00
2023-03-06T10:36:20.196Z,6.00
2023-03-06T10:38:48.777Z,6.03
2023-03-06T10:41:25.373Z,6.06
2023-03-06T10:44:01.011Z,6.13
2023-03-06T10:46:29.369Z,6.18
2023-03-06T10:49:01.262Z,6.27
2023-03-06T10:51:29.392Z,6.29
2023-03-06T10:54:06.312Z,6.30
2023-03-06T10:56:41.601Z,6.32
2023-03-06T10:59:19.287Z,6.31
2023-03-06T11:01:50.960Z,6.27
2023-03-06T11:04:24.573Z,6.24
2023-03-06T11:07:06.590Z,6.16
2023-03-06T11:09:33.669Z,6.06
2023-03-06T11:12:25.368Z,5.96
2023-03-06T11:15:10.127Z,5.84
2023-03-06T11:17:58.450Z,5.72
2023-03-06T11:20:44.677Z,5.60
2023-03-06T11:23:19.062Z,5.56
2023-03-06T11:25:54.924Z,5.55
2023-03-06T11:28:26.379Z,5.44
2023-03-06T11:30:58.906Z,5.34
2023-03-06T11:33:29.799Z,5.31
2023-03-06T11:36:00.043Z,5.30
2023-03-06T11:38:36.066Z,5.30
2023-03-06T11:41:08.621Z,5.29
2023-03-06T11:44:01.735Z,5.26
2023-03-06T11:46:40.318Z,5.16
2023-03-06T11:49:15.527Z,5.09
2023-03-06T11:51:45.915Z,5.06
2023-03-06T11:54:14.551Z,5.00
2023-03-06T11:56:50.221Z,4.97
2023-03-06T11:59:51.320Z,4.89
2023-03-06T12:02:42.436Z,4.83
2023-03-06T12:05:31.111Z,4.85
2023-03-06T12:08:17.502Z,4.89
2023-03-06T12:10:51.715Z,4.94
2023-03-06T12:13:31.851Z,5.01
2023-03-06T12:16:07.584Z,5.02
2023-03-06T12:18:48.070Z,5.05
2023-03-06T12:21:39.510Z,5.01
2023-03-06T12:24:29.536Z,4.94
2023-03-06T12:27:27.049Z,4.92
2023-03-06T12:30:15.753Z,4.96
2023-03-06T12:33:13.186Z,4.99
2023-03-06T12:35:48.862Z,5.08
2023-03-06T12:38:24.238Z,5.14
2023-03-06T12:41:02.303Z,5.11
2023-03-06T12:44:03.050Z,5.08
2023-03-06T12:46:30.503Z,5.05
2023-03-06T12:49:07.916Z,5.04
2023-03-06T12:51:34.513Z,5.02
2023-03-06T12:54:02.292Z,5.02
2023-03-06T12:56:29.752Z,4.97
2023-03-06T12:58:57.729Z,4.91
2023-03-06T13:01:46.010Z,4.90
2023-03-06T13:04:42.494Z,4.82
2023-03-06T13:07:36.030Z,4.71
2023-03-06T13:10:05.622Z,4.65
2023-03-06T13:12:51.102Z,4.63
2023-03-06T13:15:29.625Z,4.64
2023-03-06T13:17:56.704Z,4.62
2023-03-06T13:20:39.294Z,4.59
2023-03-06T13:23:28.917Z,4.59
2023-03-06T13:25:57.410Z,4.56
2023-03-06T13:28:41.179Z,4.58
2023-03-06T13:31:18.216Z,4.57
2023-03-06T13:34:00.365Z,4.56
2023-03-06T13:36:34.210Z,4.61
2023-03-06T13:39:02.429Z,4.65
2023-03-06T13:41:31.823Z,4.68
2023-03-06T13:44:02.170Z,4.74
2023-03-06T13:46:37.178Z,4.83
2023-03-06T13:49:09.620Z,4.90
2023-03-06T13:51:40.966Z,4.93
2023-03-06T13:54:47.638Z,5.08
2023-03-06T13:57:16.918Z,5.18
2023-03-06T14:00:11.840Z,5.24
2023-03-06T14:03:17.217Z,5.30
2023-03-06T14:05:48.252Z,5.37
2023-03-06T14:08:19.973Z,5.41
2023-03-06T14:10:48.063Z,5.45
2023-03-06T14:13:17.541Z,5.50
2023-03-06T14:15:52.037Z,5.54
2023-03-06T14:18:24.518Z,5.60
2023-03-06T14:20:58.570Z,5.68
2023-03-06T14:23:29.437Z,5.70
2023-03-06T14:26:17.447Z,5.75
2023-03-06T14:28:45.846Z,5.80
2023-03-06T14:31:20.680Z,5.86
2023-03-06T14:33:56.476Z,5.90
2023-03-06T14:36:26.208Z,5.94
2023-03-06T14:38:54.557Z,5.95
2023-03-06T14:41:26.308Z,5.94
2023-03-06T14:43:53.048Z,5.98
2023-03-06T14:46:21.346Z,5.93
2023-03-06T14:48:49.124Z,5.93
2023-03-06T14:51:25.210Z,5.90
2023-03-06T14:53:53.425Z,5.88
2023-03-06T14:56:25.379Z,5.84
2023-03-06T14:58:55.796Z,5.81
2023-03-06T15:01:27.861Z,5.76
2023-03-06T15:03:58.831Z,5.77
2023-03-06T15:06:29.334Z,5.70
2023-03-06T15:09:08.822Z,5.68
2023-03-06T15:11:55.369Z,5.67
2023-03-06T15:14:30.045Z,5.69
2023-03-06T15:16:56.617Z,5.69
2023-03-06T15:19:23.175Z,5.69
2023-03-06T15:21:51.303Z,5.69
2023-03-06T15:24:33.916Z,5.65
2023-03-06T15:27:05.984Z,5.65
2023-03-06T15:29:33.364Z,5.64
2023-03-06T15:32:28.094Z,5.64
2023-03-06T15:35:33.557Z,5.60
2023-03-06T15:38:02.647Z,5.58
2023-03-06T15:40:31.055Z,5.58
2023-03-06T15:42:58.539Z,5.60
2023-03-06T15:45:26.932Z,5.56
2023-03-06T15:47:54.856Z,5.54
2023-03-06T15:50:23.693Z,5.49
2023-03-06T15:52:50.126Z,5.47
2023-03-06T15:55:19.194Z,5.43
2023-03-06T15:57:57.187Z,5.40
2023-03-06T16:00:28.550Z,5.37
2023-03-06T16:02:56.608Z,5.31
2023-03-06T16:05:23.714Z,5.29
2023-03-06T16:07:50.188Z,5.25
2023-03-06T16:10:19.619Z,5.24
2023-03-06T16:13:06.720Z,5.20
2023-03-06T16:15:38.316Z,5.12
2023-03-06T16:18:06.140Z,5.03
2023-03-06T16:20:36.512Z,4.98
2023-03-06T16:23:07.811Z,4.93
2023-03-06T16:25:34.296Z,4.91
2023-03-06T16:28:01.033Z,4.89
2023-03-06T16:30:29.989Z,4.87
2023-03-06T16:32:57.016Z,4.83
2023-03-06T16:35:23.753Z,4.77
2023-03-06T16:37:50.216Z,4.74
2023-03-06T16:40:26.511Z,4.68
2023-03-06T16:42:54.803Z,4.63
2023-03-06T16:45:22.125Z,4.58
2023-03-06T16:47:48.852Z,4.53
2023-03-06T16:50:25.240Z,4.43
2023-03-06T16:52:52.582Z,4.36
2023-03-06T16:55:19.213Z,4.29
2023-03-06T16:57:45.755Z,4.19
2023-03-06T17:00:13.490Z,4.14
2023-03-06T17:02:40.218Z,4.11
2023-03-06T17:05:08.212Z,4.03
2023-03-06T17:07:36.133Z,3.97
2023-03-06T17:10:04.359Z,3.92
2023-03-06T17:12:30.825Z,3.82
2023-03-06T17:14:57.275Z,3.77
2023-03-06T17:17:23.704Z,3.74
2023-03-06T17:19:50.808Z,3.70
2023-03-06T17:22:17.998Z,3.67
2023-03-06T17:24:45.224Z,3.61
2023-03-06T17:27:11.660Z,3.56
2023-03-06T17:29:38.084Z,3.53
2023-03-06T17:32:04.608Z,3.49
2023-03-06T17:34:31.048Z,3.47
2023-03-06T17:36:57.529Z,3.45
2023-03-06T17:39:23.945Z,3.44
2023-03-06T17:41:50.356Z,3.43
2023-03-06T17:44:16.768Z,3.40
2023-03-06T17:46:44.247Z,3.39
2023-03-06T17:49:10.849Z,3.37
2023-03-06T17:51:38.107Z,3.34
2023-03-06T17:54:04.780Z,3.27
2023-03-06T17:56:31.250Z,3.22
2023-03-06T17:58:57.697Z,3.18
2023-03-06T18:01:28.484Z,3.13
2023-03-06T18:03:54.904Z,3.09
2023-03-06T18:06:22.181Z,3.04
2023-03-06T18:08:51.024Z,3.01
2023-03-06T18:11:19.185Z,3.01
2023-03-06T18:13:46.403Z,2.98
2023-03-06T18:16:15.406Z,2.94
2023-03-06T18:18:42.052Z,2.93
2023-03-06T18:21:11.661Z,2.93
2023-03-06T18:23:39.470Z,2.93
2023-03-06T18:26:16.999Z,2.94
2023-03-06T18:28:45.326Z,2.95
2023-03-06T18:31:34.464Z,2.93
2023-03-06T18:34:03.673Z,2.92
2023-03-06T18:36:31.995Z,2.88
2023-03-06T18:38:59.201Z,2.87
2023-03-06T18:41:25.608Z,2.84
2023-03-06T18:43:56.854Z,2.83
2023-03-06T18:46:23.995Z,2.79
2023-03-06T18:48:50.441Z,2.77
2023-03-06T18:51:17.145Z,2.75
2023-03-06T18:53:44.042Z,2.72
2023-03-06T18:56:16.617Z,2.70
2023-03-06T18:58:43.740Z,2.66
2023-03-06T19:01:10.607Z,2.64
2023-03-06T19:03:37.077Z,2.63
2023-03-06T19:06:05.892Z,2.60
2023-03-06T19:08:32.387Z,2.59
2023-03-06T19:11:03.634Z,2.54
2023-03-06T19:13:30.356Z,2.53
2023-03-06T19:15:57.072Z,2.50
2023-03-06T19:18:24.903Z,2.48
2023-03-06T19:20:52.674Z,2.46
2023-03-06T19:23:19.525Z,2.43
2023-03-06T19:25:56.839Z,2.42
2023-03-06T19:28:23.317Z,2.40
2023-03-06T19:30:49.767Z,2.37
2023-03-06T19:33:16.316Z,2.35
2023-03-06T19:35:42.787Z,2.32
2023-03-06T19:38:10.198Z,2.31
2023-03-06T19:40:37.164Z,2.27
2023-03-06T19:43:04.115Z,2.22
2023-03-06T19:45:30.540Z,2.19
2023-03-06T19:48:00.735Z,2.20
2023-03-06T19:50:30.574Z,2.19
2023-03-06T19:52:57.311Z,2.17
2023-03-06T19:55:26.211Z,2.16
2023-03-06T19:57:52.889Z,2.12
2023-03-06T20:00:19.612Z,2.12
2023-03-06T20:02:46.072Z,2.09
2023-03-06T20:05:12.493Z,2.08
2023-03-06T20:07:38.940Z,2.06
2023-03-06T20:10:05.481Z,2.04
2023-03-06T20:12:33.158Z,2.02
2023-03-06T20:14:59.892Z,2.01
2023-03-06T20:17:26.392Z,2.00
2023-03-06T20:19:53.044Z,1.98
2023-03-06T20:22:19.736Z,1.97
2023-03-06T20:24:46.155Z,1.94
2023-03-06T20:27:12.645Z,1.92
2023-03-06T20:29:43.231Z,1.88
2023-03-06T20:32:09.705Z,1.85
2023-03-06T20:34:38.899Z,1.85
2023-03-06T20:37:07.039Z,1.85
2023-03-06T20:39:33.501Z,1.83
2023-03-06T20:42:00.179Z,1.83
2023-03-06T20:44:27.099Z,1.78
2023-03-06T20:46:53.559Z,1.78
2023-03-06T20:49:20.090Z,1.77
2023-03-06T20:51:46.495Z,1.72
2023-03-06T20:54:14.618Z,1.71
2023-03-06T20:56:42.395Z,1.70
2023-03-06T20:59:11.526Z,1.67
2023-03-06T21:01:41.151Z,1.64
2023-03-06T21:04:09.830Z,1.61
2023-03-06T21:06:37.065Z,1.59
2023-03-06T21:09:05.252Z,1.58
2023-03-06T21:11:32.360Z,1.56
2023-03-06T21:13:58.764Z,1.56
2023-03-06T21:16:26.266Z,1.54
2023-03-06T21:18:55.219Z,1.52
2023-03-06T21:21:24.467Z,1.52
2023-03-06T21:23:50.974Z,1.50
2023-03-06T21:26:19.752Z,1.47
2023-03-06T21:28:46.444Z,1.46
2023-03-06T21:31:14.760Z,1.43
2023-03-06T21:33:41.944Z,1.42
2023-03-06T21:36:09.198Z,1.40
2023-03-06T21:38:35.975Z,1.41
2023-03-06T21:41:14.331Z,1.39
2023-03-06T21:43:41.194Z,1.36
2023-03-06T21:46:07.661Z,1.33
2023-03-06T21:48:34.396Z,1.32
2023-03-06T21:51:12.350Z,1.31
2023-03-06T21:53:41.506Z,1.29
2023-03-06T21:56:08.507Z,1.28
2023-03-06T21:58:34.922Z,1.28
2023-03-06T22:01:01.359Z,1.27
2023-03-06T22:03:31.144Z,1.25
2023-03-06T22:06:07.521Z,1.25
2023-03-06T22:08:33.959Z,1.25
2023-03-06T22:11:05.199Z,1.25
2023-03-06T22:13:31.751Z,1.26
2023-03-06T22:15:58.165Z,1.23
2023-03-06T22:18:24.590Z,1.25
2023-03-06T22:20:52.056Z,1.26
2023-03-06T22:23:18.529Z,1.27
2023-03-06T22:25:45.044Z,1.30
2023-03-06T22:28:13.022Z,1.29
2023-03-06T22:30:39.442Z,1.32
2023-03-06T22:33:05.880Z,1.34
2023-03-06T22:35:32.335Z,1.35
2023-03-06T22:37:59.528Z,1.37
2023-03-06T22:40:25.977Z,1.37
2023-03-06T22:42:52.391Z,1.40
2023-03-06T22:45:18.874Z,1.39
2023-03-06T22:47:45.350Z,1.41
2023-03-06T22:50:12.033Z,1.44
2023-03-06T22:52:38.451Z,1.46
2023-03-06T22:55:05.545Z,1.47
2023-03-06T22:57:32.175Z,1.51
2023-03-06T22:59:58.599Z,1.53
2023-03-06T23:02:25.005Z,1.53
2023-03-06T23:04:52.685Z,1.54
2023-03-06T23:07:20.128Z,1.58
2023-03-06T23:09:46.788Z,1.57
2023-03-06T23:12:13.193Z,1.57
2023-03-06T23:14:39.713Z,1.60
2023-03-06T23:17:06.278Z,1.63
2023-03-06T23:19:32.713Z,1.64
2023-03-06T23:21:59.113Z,1.66
2023-03-06T23:24:25.526Z,1.68
2023-03-06T23:26:51.994Z,1.68
2023-03-06T23:29:18.411Z,1.70
2023-03-06T23:31:44.819Z,1.73
2023-03-06T23:34:11.580Z,1.74
2023-03-06T23:36:38.010Z,1.78
2023-03-06T23:39:04.442Z,1.80
2023-03-06T23:41:30.872Z,1.82
2023-03-06T23:43:58.335Z,1.82
2023-03-06T23:46:24.947Z,1.85
2023-03-06T23:48:52.259Z,1.86
2023-03-06T23:51:21.301Z,1.88
2023-03-06T23:53:52.629Z,1.90
2023-03-06T23:56:19.065Z,1.92
2023-03-06T23:58:45.638Z,1.93
